Time;durP1;ratioP1;P1;durP2;ratioP2;P2;SDS_P1;SDS_P2;PMS_P1;PMS_P2;Temp;Humidity;BMP_temperature;BMP_pressure;BME280_temperature;BME280_humidity;BME280_pressure;Samples;Min_cycle;Max_cycle;Signal;HPM_P1;HPM_P2
2021/07/13 00:03:43;;;;;;;;;;;19.20;99.90;;;;;;8307973;28;20201;-67
2021/07/13 00:07:44;;;;;;;;;;;18.90;99.90;;;;;;8308089;28;19909;-66
2021/07/13 00:11:44;;;;;;;;;;;18.80;99.90;;;;;;8325609;28;19919;-67
2021/07/13 00:15:45;;;;;;;;;;;18.70;99.90;;;;;;8325430;28;19905;-67
2021/07/13 00:19:45;;;;;;;;;;;18.70;99.90;;;;;;8325831;28;19909;-66
2021/07/13 00:23:46;;;;;;;;;;;18.90;99.90;;;;;;8325412;28;20003;-67
2021/07/13 00:27:47;;;;;;;;;;;18.90;99.90;;;;;;8325925;28;19905;-65
2021/07/13 00:31:47;;;;;;;;;;;18.90;99.90;;;;;;8324950;28;19905;-67
2021/07/13 00:35:47;;;;;;;;;;;18.80;99.90;;;;;;8325850;28;19905;-65
2021/07/13 00:39:48;;;;;;;;;;;18.70;99.90;;;;;;8325616;28;20359;-66
2021/07/13 00:43:49;;;;;;;;;;;18.50;99.90;;;;;;8324408;28;20291;-66
2021/07/13 00:47:50;;;;;;;;;;;18.50;99.90;;;;;;8325474;28;19937;-66
2021/07/13 00:51:51;;;;;;;;;;;18.50;99.90;;;;;;8307629;28;20287;-66
2021/07/13 00:55:53;;;;;;;;;;;18.70;99.90;;;;;;8307435;28;19956;-66
2021/07/13 00:59:54;;;;;;;;;;;18.50;99.90;;;;;;8330751;28;20008;-67
2021/07/13 01:03:54;;;;;;;;;;;18.40;99.90;;;;;;8331756;28;19909;-66
2021/07/13 01:08:04;;;;;;;;;;;18.60;99.90;;;;;;8331193;28;19905;-66
2021/07/13 01:12:28;;;;;;;;;;;18.30;99.90;;;;;;8313580;28;19931;-67
2021/07/13 01:16:33;;;;;;;;;;;18.40;99.90;;;;;;8322600;28;19948;-66
2021/07/13 01:20:33;;;;;;;;;;;18.20;99.90;;;;;;8330956;28;19909;-67
2021/07/13 01:24:41;;;;;;;;;;;18.10;99.90;;;;;;8313300;28;19908;-66
2021/07/13 01:28:43;;;;;;;;;;;18.00;99.90;;;;;;8330581;28;19912;-66
2021/07/13 01:32:45;;;;;;;;;;;18.00;99.90;;;;;;8330460;28;19913;-66
2021/07/13 01:36:50;;;;;;;;;;;18.20;99.90;;;;;;8330560;28;19917;-66
2021/07/13 01:40:54;;;;;;;;;;;18.00;99.90;;;;;;8329934;28;19913;-67
2021/07/13 01:44:57;;;;;;;;;;;17.80;99.90;;;;;;8312939;28;19913;-66
2021/07/13 01:48:58;;;;;;;;;;;18.10;99.90;;;;;;8330696;28;20379;-67
2021/07/13 01:52:59;;;;;;;;;;;18.10;99.90;;;;;;8312263;28;20160;-67
2021/07/13 01:56:59;;;;;;;;;;;18.10;99.90;;;;;;8330047;28;20350;-66
2021/07/13 02:01:19;;;;;;;;;;;18.10;99.90;;;;;;8329900;28;19940;-66
2021/07/13 02:05:20;;;;;;;;;;;18.40;99.90;;;;;;8312159;28;19913;-66
2021/07/13 02:09:20;;;;;;;;;;;18.40;99.90;;;;;;8310961;28;20046;-67
2021/07/13 02:13:21;;;;;;;;;;;18.40;99.90;;;;;;8328856;28;19913;-66
2021/07/13 02:17:24;;;;;;;;;;;18.30;99.90;;;;;;8329074;28;19912;-66
2021/07/13 02:21:25;;;;;;;;;;;18.30;99.90;;;;;;8328711;28;19955;-65
2021/07/13 02:25:25;;;;;;;;;;;18.30;99.90;;;;;;8329050;28;20354;-66
2021/07/13 02:29:48;;;;;;;;;;;18.30;99.90;;;;;;8328667;28;20359;-66
2021/07/13 02:33:55;;;;;;;;;;;18.30;99.90;;;;;;8310574;28;19905;-67
2021/07/13 02:37:56;;;;;;;;;;;18.20;99.90;;;;;;8328236;28;19959;-65
2021/07/13 02:41:56;;;;;;;;;;;18.30;99.90;;;;;;8326266;28;19920;-66
2021/07/13 02:45:57;;;;;;;;;;;18.20;99.90;;;;;;8328240;28;19905;-67
2021/07/13 02:49:59;;;;;;;;;;;18.10;99.90;;;;;;8328528;28;19905;-67
2021/07/13 02:54:00;;;;;;;;;;;18.00;99.90;;;;;;8328132;28;19905;-67
2021/07/13 02:58:01;;;;;;;;;;;17.90;99.90;;;;;;8327686;28;19912;-66
2021/07/13 03:02:02;;;;;;;;;;;17.90;99.90;;;;;;8327948;28;19905;-67
2021/07/13 03:06:03;;;;;;;;;;;17.90;99.90;;;;;;8328263;28;20291;-66
2021/07/13 03:10:04;;;;;;;;;;;17.80;99.90;;;;;;8326877;28;19909;-67
2021/07/13 03:14:06;;;;;;;;;;;17.80;99.90;;;;;;8327848;28;19908;-67
2021/07/13 03:18:06;;;;;;;;;;;17.60;99.90;;;;;;8327632;28;19951;-66
2021/07/13 03:22:08;;;;;;;;;;;17.40;99.90;;;;;;8308915;28;19995;-66
2021/07/13 03:26:09;;;;;;;;;;;17.20;99.90;;;;;;8326750;28;19905;-66
2021/07/13 03:30:10;;;;;;;;;;;17.20;99.90;;;;;;8309044;28;19927;-67
2021/07/13 03:34:10;;;;;;;;;;;17.20;99.90;;;;;;8312872;28;19912;-67
2021/07/13 03:38:11;;;;;;;;;;;17.40;99.90;;;;;;8293946;28;19906;-67
2021/07/13 03:42:12;;;;;;;;;;;17.30;99.90;;;;;;8293265;28;19913;-66
2021/07/13 03:46:13;;;;;;;;;;;17.40;99.90;;;;;;8308938;28;19905;-67
2021/07/13 03:50:15;;;;;;;;;;;17.30;99.90;;;;;;8325371;28;20383;-66
2021/07/13 03:54:16;;;;;;;;;;;17.00;99.90;;;;;;8312357;28;19912;-66
2021/07/13 03:58:16;;;;;;;;;;;17.00;99.90;;;;;;8304191;28;19916;-67
2021/07/13 04:02:17;;;;;;;;;;;17.30;99.90;;;;;;8324897;28;19991;-66
2021/07/13 04:06:17;;;;;;;;;;;17.20;99.90;;;;;;8322266;28;19945;-66
2021/07/13 04:10:18;;;;;;;;;;;17.00;99.90;;;;;;8307966;28;19909;-67
2021/07/13 04:14:18;;;;;;;;;;;17.20;99.90;;;;;;8304357;28;19916;-66
2021/07/13 04:18:19;;;;;;;;;;;16.90;99.90;;;;;;8308117;28;19905;-66
2021/07/13 04:22:19;;;;;;;;;;;16.80;99.90;;;;;;8292815;28;20418;-67
2021/07/13 04:26:20;;;;;;;;;;;16.90;99.90;;;;;;8322172;28;19909;-68
2021/07/13 04:30:21;;;;;;;;;;;16.80;99.90;;;;;;8296811;28;19996;-67
2021/07/13 04:34:21;;;;;;;;;;;16.80;99.90;;;;;;8307942;28;19916;-69
2021/07/13 04:38:22;;;;;;;;;;;16.80;99.90;;;;;;8299779;28;20399;-68
2021/07/13 04:42:22;;;;;;;;;;;17.00;99.90;;;;;;8298313;28;19913;-68
2021/07/13 04:46:23;;;;;;;;;;;17.40;99.90;;;;;;8289771;28;19964;-68
2021/07/13 04:50:23;;;;;;;;;;;17.30;99.90;;;;;;8309553;28;19917;-68
2021/07/13 04:54:24;;;;;;;;;;;17.30;99.90;;;;;;8296914;28;19913;-70
2021/07/13 04:58:24;;;;;;;;;;;17.40;99.90;;;;;;8311117;28;19959;-68
2021/07/13 05:02:25;;;;;;;;;;;17.60;99.90;;;;;;8302192;28;19937;-67
2021/07/13 05:06:25;;;;;;;;;;;17.80;99.90;;;;;;8281682;28;19913;-67
2021/07/13 05:10:26;;;;;;;;;;;17.90;99.90;;;;;;8312547;28;20394;-68
2021/07/13 05:14:26;;;;;;;;;;;18.00;99.90;;;;;;8330911;28;19905;-67
2021/07/13 05:18:27;;;;;;;;;;;18.10;99.90;;;;;;8314522;28;19912;-68
2021/07/13 05:22:28;;;;;;;;;;;18.00;99.90;;;;;;8329928;28;19912;-67
2021/07/13 05:26:29;;;;;;;;;;;18.00;99.90;;;;;;8330390;28;19909;-68
2021/07/13 05:30:29;;;;;;;;;;;18.10;99.90;;;;;;8312701;28;19975;-67
2021/07/13 05:34:30;;;;;;;;;;;18.20;99.90;;;;;;8327419;28;19909;-68
2021/07/13 05:38:30;;;;;;;;;;;18.40;99.90;;;;;;8314160;28;19913;-68
2021/07/13 05:42:31;;;;;;;;;;;18.50;99.90;;;;;;8350070;23;19921;-68
2021/07/13 05:46:31;;;;;;;;;;;18.70;99.90;;;;;;8325864;28;19909;-69
2021/07/13 05:50:32;;;;;;;;;;;18.50;99.90;;;;;;8328134;28;19916;-68
2021/07/13 05:54:32;;;;;;;;;;;18.70;99.90;;;;;;8329046;28;19909;-68
2021/07/13 05:58:33;;;;;;;;;;;18.60;99.90;;;;;;8329639;28;19920;-68
2021/07/13 06:02:34;;;;;;;;;;;18.70;99.90;;;;;;8309390;28;19909;-68
2021/07/13 06:06:34;;;;;;;;;;;18.50;99.90;;;;;;8296547;28;19964;-69
2021/07/13 06:10:35;;;;;;;;;;;18.70;99.90;;;;;;8315660;28;19949;-67
2021/07/13 06:14:40;;;;;;;;;;;18.70;99.90;;;;;;8315709;28;19909;-68
2021/07/13 06:18:40;;;;;;;;;;;18.70;99.90;;;;;;8308511;28;19917;-68
2021/07/13 06:22:41;;;;;;;;;;;18.70;99.90;;;;;;8306268;28;19916;-68
2021/07/13 06:26:42;;;;;;;;;;;18.70;99.90;;;;;;8308061;28;19913;-65
2021/07/13 06:30:42;;;;;;;;;;;18.60;99.90;;;;;;8312551;28;19915;-63
2021/07/13 06:34:42;;;;;;;;;;;18.50;99.90;;;;;;8309254;28;20004;-64
2021/07/13 06:38:43;;;;;;;;;;;18.40;99.90;;;;;;8324986;28;19913;-64
2021/07/13 06:42:44;;;;;;;;;;;18.10;99.90;;;;;;8317963;28;20750;-64
2021/07/13 06:46:44;;;;;;;;;;;18.20;99.90;;;;;;8301843;28;19959;-63
2021/07/13 06:50:45;;;;;;;;;;;18.00;99.90;;;;;;8304718;28;19917;-63
2021/07/13 06:54:45;;;;;;;;;;;17.80;99.90;;;;;;8301357;28;19920;-64
2021/07/13 06:58:46;;;;;;;;;;;17.80;99.90;;;;;;8317410;28;20319;-63
2021/07/13 07:02:46;;;;;;;;;;;18.20;99.90;;;;;;8323645;28;20045;-63
2021/07/13 07:06:47;;;;;;;;;;;18.20;99.90;;;;;;8294534;28;20280;-63
2021/07/13 07:10:47;;;;;;;;;;;18.60;99.90;;;;;;8297935;28;20360;-64
2021/07/13 07:14:48;;;;;;;;;;;19.70;99.90;;;;;;8302600;28;19916;-65
2021/07/13 07:18:48;;;;;;;;;;;20.70;99.90;;;;;;8297938;28;19917;-64
2021/07/13 07:22:49;;;;;;;;;;;21.10;99.90;;;;;;8319481;28;20443;-64
2021/07/13 07:26:49;;;;;;;;;;;20.90;99.90;;;;;;8293651;28;19921;-65
2021/07/13 07:30:50;;;;;;;;;;;20.80;99.90;;;;;;8301159;28;20386;-65
2021/07/13 07:34:50;;;;;;;;;;;20.80;99.90;;;;;;8309521;28;19909;-64
2021/07/13 07:38:51;;;;;;;;;;;20.70;99.90;;;;;;8300734;28;19917;-64
2021/07/13 07:42:52;;;;;;;;;;;20.00;99.90;;;;;;8295009;28;19913;-64
2021/07/13 07:46:53;;;;;;;;;;;19.50;99.90;;;;;;8288206;28;19920;-64
2021/07/13 07:50:53;;;;;;;;;;;18.90;99.90;;;;;;8279431;28;19913;-64
2021/07/13 07:54:53;;;;;;;;;;;18.60;99.90;;;;;;8276816;28;19909;-63
2021/07/13 07:58:54;;;;;;;;;;;18.10;99.90;;;;;;8292208;28;19959;-64
2021/07/13 08:02:54;;;;;;;;;;;17.40;99.90;;;;;;8314919;28;19959;-64
2021/07/13 08:06:55;;;;;;;;;;;17.00;99.90;;;;;;8293292;28;19920;-63
2021/07/13 08:10:55;;;;;;;;;;;16.70;99.90;;;;;;8293989;28;19996;-63
2021/07/13 08:14:56;;;;;;;;;;;16.60;99.90;;;;;;8293348;28;19949;-64
2021/07/13 08:18:56;;;;;;;;;;;16.70;99.90;;;;;;8292928;28;19909;-63
2021/07/13 08:22:57;;;;;;;;;;;16.70;99.90;;;;;;8296280;28;20007;-63
2021/07/13 08:26:57;;;;;;;;;;;16.80;99.90;;;;;;8302313;28;19910;-63
2021/07/13 08:30:58;;;;;;;;;;;16.70;99.90;;;;;;8296334;28;19996;-63
2021/07/13 08:34:58;;;;;;;;;;;16.50;99.90;;;;;;8293186;28;20272;-63
2021/07/13 08:38:59;;;;;;;;;;;16.20;99.90;;;;;;8284199;28;19936;-64
2021/07/13 08:42:59;;;;;;;;;;;16.10;99.90;;;;;;8305469;28;19913;-63
2021/07/13 08:47:00;;;;;;;;;;;15.80;99.90;;;;;;8325307;28;19911;-63
2021/07/13 08:51:01;;;;;;;;;;;15.50;99.90;;;;;;8310030;28;20425;-63
2021/07/13 08:55:03;;;;;;;;;;;15.50;99.90;;;;;;8295948;28;20302;-63
2021/07/13 08:59:04;;;;;;;;;;;15.70;99.90;;;;;;8303429;28;20383;-64
2021/07/13 09:03:05;;;;;;;;;;;15.80;99.90;;;;;;8300193;28;20232;-64
2021/07/13 09:07:09;;;;;;;;;;;16.10;99.90;;;;;;8313096;28;19920;-63
2021/07/13 09:11:13;;;;;;;;;;;15.90;99.90;;;;;;8307228;28;19917;-64
2021/07/13 09:15:17;;;;;;;;;;;15.80;99.90;;;;;;8307008;28;19909;-63
2021/07/13 09:19:18;;;;;;;;;;;15.70;99.90;;;;;;8310160;28;19909;-64
2021/07/13 09:23:18;;;;;;;;;;;15.60;99.90;;;;;;8306187;28;20269;-64
2021/07/13 09:27:19;;;;;;;;;;;15.80;99.90;;;;;;8312733;28;20372;-64
2021/07/13 09:31:23;;;;;;;;;;;16.30;99.90;;;;;;8324527;28;19909;-64
2021/07/13 09:35:23;;;;;;;;;;;16.70;99.90;;;;;;8295282;28;20416;-64
2021/07/13 09:39:24;;;;;;;;;;;16.80;99.90;;;;;;8279729;28;19985;-64
2021/07/13 09:43:25;;;;;;;;;;;16.80;99.90;;;;;;8280237;28;19999;-63
2021/07/13 09:47:28;;;;;;;;;;;16.60;99.90;;;;;;8294776;28;20004;-64
2021/07/13 09:51:29;;;;;;;;;;;16.10;99.90;;;;;;8278328;28;19910;-64
2021/07/13 09:55:30;;;;;;;;;;;15.60;99.90;;;;;;8277545;28;19909;-64
2021/07/13 09:59:30;;;;;;;;;;;15.10;99.90;;;;;;8295506;28;20287;-64
2021/07/13 10:03:31;;;;;;;;;;;14.90;99.90;;;;;;8297040;28;19913;-64
2021/07/13 10:07:32;;;;;;;;;;;14.80;99.90;;;;;;8296008;28;19906;-64
2021/07/13 10:11:32;;;;;;;;;;;14.60;99.90;;;;;;8285281;28;19909;-64
2021/07/13 10:15:34;;;;;;;;;;;14.60;99.90;;;;;;8269511;28;19917;-63
2021/07/13 10:19:38;;;;;;;;;;;14.60;99.90;;;;;;8267887;28;19913;-63
2021/07/13 10:23:41;;;;;;;;;;;14.40;99.90;;;;;;8270585;28;19909;-63
2021/07/13 10:27:49;;;;;;;;;;;14.20;99.90;;;;;;8278417;28;19921;-62
2021/07/13 10:31:50;;;;;;;;;;;14.10;99.90;;;;;;8280963;28;19909;-62
2021/07/13 10:35:50;;;;;;;;;;;14.20;99.90;;;;;;8279589;28;19917;-68
2021/07/13 10:39:51;;;;;;;;;;;14.30;99.90;;;;;;8292968;28;20571;-68
2021/07/13 10:43:52;;;;;;;;;;;14.40;99.90;;;;;;8296375;28;20494;-68
2021/07/13 10:48:03;;;;;;;;;;;14.50;99.90;;;;;;8313429;28;19916;-68
2021/07/13 10:52:04;;;;;;;;;;;14.70;99.90;;;;;;8314158;28;19913;-68
2021/07/13 10:56:17;;;;;;;;;;;15.00;99.90;;;;;;8303107;28;19994;-68
2021/07/13 11:00:37;;;;;;;;;;;15.10;99.90;;;;;;8290112;28;19943;-70
2021/07/13 11:04:38;;;;;;;;;;;15.10;99.90;;;;;;8295293;28;20303;-69
2021/07/13 11:08:38;;;;;;;;;;;15.10;99.90;;;;;;8290634;28;19916;-69
2021/07/13 11:12:39;;;;;;;;;;;15.00;99.90;;;;;;8278031;28;19910;-68
2021/07/13 11:16:40;;;;;;;;;;;15.00;99.90;;;;;;8285783;28;20002;-69
2021/07/13 11:20:41;;;;;;;;;;;15.00;99.90;;;;;;8291972;28;19920;-70
2021/07/13 11:24:41;;;;;;;;;;;15.10;99.90;;;;;;8278853;28;20296;-62
2021/07/13 11:28:45;;;;;;;;;;;15.10;99.90;;;;;;8302537;28;20410;-63
2021/07/13 11:32:59;;;;;;;;;;;15.10;99.90;;;;;;8302609;28;19917;-63
2021/07/13 11:36:59;;;;;;;;;;;15.10;99.90;;;;;;8296420;28;19912;-63
2021/07/13 11:41:12;;;;;;;;;;;15.20;99.90;;;;;;8298737;28;20339;-63
2021/07/13 11:45:12;;;;;;;;;;;15.40;99.90;;;;;;8304543;28;19924;-62
2021/07/13 11:49:14;;;;;;;;;;;15.50;99.90;;;;;;8309372;28;20371;-63
2021/07/13 11:53:21;;;;;;;;;;;15.50;99.90;;;;;;8315788;28;19909;-63
2021/07/13 11:57:22;;;;;;;;;;;15.50;99.90;;;;;;8314357;28;19916;-63
2021/07/13 12:01:23;;;;;;;;;;;15.40;99.90;;;;;;8315107;28;19917;-63
2021/07/13 12:05:25;;;;;;;;;;;15.30;99.90;;;;;;8307102;28;19996;-63
2021/07/13 12:09:29;;;;;;;;;;;15.30;99.90;;;;;;8307089;28;19914;-62
2021/07/13 12:13:29;;;;;;;;;;;15.30;99.90;;;;;;8303007;28;20038;-63
2021/07/13 12:17:30;;;;;;;;;;;15.40;99.90;;;;;;8308954;28;19916;-62
2021/07/13 12:21:32;;;;;;;;;;;15.60;99.90;;;;;;8297739;28;19940;-62
2021/07/13 12:25:32;;;;;;;;;;;16.20;99.90;;;;;;8289501;28;19909;-62
2021/07/13 12:29:36;;;;;;;;;;;16.30;99.90;;;;;;8328364;22;20339;-60
2021/07/13 12:33:36;;;;;;;;;;;16.50;99.90;;;;;;8312867;28;20338;-60
2021/07/13 12:37:37;;;;;;;;;;;16.30;99.90;;;;;;8305563;28;19909;-60
2021/07/13 12:41:37;;;;;;;;;;;16.30;99.90;;;;;;8283157;28;20044;-60
2021/07/13 12:45:38;;;;;;;;;;;16.70;99.90;;;;;;8280766;28;20459;-59
2021/07/13 12:49:39;;;;;;;;;;;17.40;99.90;;;;;;8256899;28;19916;-60
2021/07/13 12:53:39;;;;;;;;;;;17.60;99.90;;;;;;8286841;28;19909;-60
2021/07/13 12:57:41;;;;;;;;;;;17.40;99.90;;;;;;8275137;28;19940;-61
2021/07/13 13:01:42;;;;;;;;;;;17.10;99.90;;;;;;8271940;28;19976;-61
2021/07/13 13:05:44;;;;;;;;;;;17.00;99.90;;;;;;8293512;28;19910;-61
2021/07/13 13:09:44;;;;;;;;;;;16.80;99.90;;;;;;8276624;28;20384;-60
2021/07/13 13:13:45;;;;;;;;;;;16.40;99.90;;;;;;8283488;28;19944;-60
2021/07/13 13:17:46;;;;;;;;;;;16.50;99.90;;;;;;8287237;28;19918;-60
2021/07/13 13:21:48;;;;;;;;;;;16.80;99.90;;;;;;8292198;28;19913;-61
2021/07/13 13:25:48;;;;;;;;;;;17.00;99.90;;;;;;8274561;28;19913;-61
2021/07/13 13:29:49;;;;;;;;;;;16.80;99.90;;;;;;8295740;28;20438;-61
2021/07/13 13:33:53;;;;;;;;;;;16.50;99.90;;;;;;8296325;28;19905;-60
2021/07/13 13:38:08;;;;;;;;;;;16.40;99.90;;;;;;8291023;28;19963;-61
2021/07/13 13:42:08;;;;;;;;;;;16.40;99.90;;;;;;8265007;28;19960;-61
2021/07/13 13:46:09;;;;;;;;;;;16.40;99.90;;;;;;8273547;28;20534;-61
2021/07/13 13:50:10;;;;;;;;;;;16.30;99.90;;;;;;8297029;28;19960;-61
2021/07/13 13:54:10;;;;;;;;;;;16.10;99.90;;;;;;8296465;28;19910;-61
2021/07/13 13:58:11;;;;;;;;;;;16.00;99.90;;;;;;8296235;28;19920;-61
2021/07/13 14:02:12;;;;;;;;;;;16.00;99.90;;;;;;8296331;28;19917;-61
2021/07/13 14:06:12;;;;;;;;;;;15.90;99.90;;;;;;8291517;28;19917;-67
2021/07/13 14:10:13;;;;;;;;;;;15.70;99.90;;;;;;8296331;28;19950;-66
2021/07/13 14:14:17;;;;;;;;;;;15.90;99.90;;;;;;8291098;28;20420;-66
2021/07/13 14:18:18;;;;;;;;;;;15.90;99.90;;;;;;8295675;28;20391;-66
2021/07/13 14:22:18;;;;;;;;;;;15.80;99.90;;;;;;8295547;28;19937;-66
2021/07/13 14:26:19;;;;;;;;;;;15.90;99.90;;;;;;8295711;28;19910;-66
2021/07/13 14:30:22;;;;;;;;;;;15.80;99.90;;;;;;8294551;28;20315;-66
2021/07/13 14:34:22;;;;;;;;;;;15.90;99.90;;;;;;8294707;28;20338;-66
2021/07/13 14:38:24;;;;;;;;;;;16.00;99.90;;;;;;8295390;28;19992;-66
2021/07/13 14:42:25;;;;;;;;;;;16.00;99.90;;;;;;8295437;28;20330;-59
2021/07/13 14:46:27;;;;;;;;;;;16.20;99.90;;;;;;8294186;28;20000;-61
2021/07/13 14:50:28;;;;;;;;;;;16.70;99.90;;;;;;8292998;28;19957;-60
2021/07/13 14:54:28;;;;;;;;;;;16.70;99.90;;;;;;8294792;28;20342;-61
2021/07/13 14:58:28;;;;;;;;;;;16.70;99.90;;;;;;8272783;28;19910;-60
2021/07/13 15:02:29;;;;;;;;;;;16.60;99.90;;;;;;8294739;28;20312;-61
2021/07/13 15:06:29;;;;;;;;;;;16.60;99.90;;;;;;8291034;28;19968;-61
2021/07/13 15:10:30;;;;;;;;;;;16.80;99.90;;;;;;8288449;28;19952;-61
2021/07/13 15:14:30;;;;;;;;;;;17.00;99.90;;;;;;8289339;28;19967;-61
2021/07/13 15:18:31;;;;;;;;;;;16.90;99.90;;;;;;8292058;28;19913;-61
2021/07/13 15:22:31;;;;;;;;;;;16.80;99.90;;;;;;8292016;28;19917;-60
2021/07/13 15:26:32;;;;;;;;;;;16.60;99.90;;;;;;8272082;28;19921;-60
2021/07/13 15:30:33;;;;;;;;;;;16.30;99.90;;;;;;8270063;28;19956;-61
2021/07/13 15:34:33;;;;;;;;;;;16.20;99.90;;;;;;8288766;28;19916;-61
2021/07/13 15:38:34;;;;;;;;;;;16.30;99.90;;;;;;8293084;28;19909;-61
2021/07/13 15:42:34;;;;;;;;;;;16.50;99.90;;;;;;8292547;28;19935;-60
2021/07/13 15:46:35;;;;;;;;;;;16.60;99.90;;;;;;8292475;28;19913;-61
2021/07/13 15:50:36;;;;;;;;;;;16.70;99.90;;;;;;8293131;28;19909;-61
2021/07/13 15:54:36;;;;;;;;;;;16.80;99.90;;;;;;8292904;28;19917;-60
2021/07/13 15:58:37;;;;;;;;;;;16.90;99.90;;;;;;8292096;28;19909;-61
2021/07/13 16:02:37;;;;;;;;;;;17.70;99.90;;;;;;8293348;28;19910;-61
2021/07/13 16:06:38;;;;;;;;;;;19.30;99.90;;;;;;8292528;28;20191;-61
2021/07/13 16:10:39;;;;;;;;;;;21.20;99.90;;;;;;8292877;28;19912;-61
2021/07/13 16:14:40;;;;;;;;;;;20.40;99.90;;;;;;8276732;28;20450;-61
2021/07/13 16:18:40;;;;;;;;;;;18.70;99.90;;;;;;8292595;28;19905;-61
2021/07/13 16:22:40;;;;;;;;;;;17.80;99.90;;;;;;8292983;28;19916;-60
2021/07/13 16:26:42;;;;;;;;;;;17.30;99.90;;;;;;8293463;28;19912;-60
2021/07/13 16:30:42;;;;;;;;;;;16.90;99.90;;;;;;8298213;28;19963;-61
2021/07/13 16:34:43;;;;;;;;;;;16.80;99.90;;;;;;8292789;28;19960;-60
2021/07/13 16:38:44;;;;;;;;;;;16.90;99.90;;;;;;8297546;28;19913;-60
2021/07/13 16:42:45;;;;;;;;;;;16.90;99.90;;;;;;8267635;28;20016;-60
2021/07/13 16:46:45;;;;;;;;;;;17.10;99.90;;;;;;8292420;28;19909;-63
2021/07/13 16:50:46;;;;;;;;;;;17.10;99.90;;;;;;8298495;28;20261;-60
2021/07/13 16:54:47;;;;;;;;;;;17.10;99.90;;;;;;8280355;28;20241;-59
2021/07/13 16:58:48;;;;;;;;;;;16.90;99.90;;;;;;8297262;28;19965;-60
2021/07/13 17:02:48;;;;;;;;;;;16.90;99.90;;;;;;8294502;28;19917;-61
2021/07/13 17:06:49;;;;;;;;;;;16.90;99.90;;;;;;8296936;28;19996;-61
2021/07/13 17:10:49;;;;;;;;;;;16.90;99.90;;;;;;8279479;28;19940;-60
2021/07/13 17:14:49;;;;;;;;;;;17.00;99.90;;;;;;8296989;28;19972;-61
2021/07/13 17:18:53;;;;;;;;;;;16.80;99.90;;;;;;8295995;28;19910;-61
2021/07/13 17:22:56;;;;;;;;;;;16.70;99.90;;;;;;8297334;28;20036;-60
2021/07/13 17:26:56;;;;;;;;;;;16.50;99.90;;;;;;8295513;28;19940;-60
2021/07/13 17:30:56;;;;;;;;;;;16.30;99.90;;;;;;8287606;28;19920;-62
2021/07/13 17:34:57;;;;;;;;;;;16.30;99.90;;;;;;8296467;28;20391;-63
2021/07/13 17:38:57;;;;;;;;;;;16.60;99.90;;;;;;8295149;28;20398;-62
2021/07/13 17:42:58;;;;;;;;;;;17.40;99.90;;;;;;8296002;28;19909;-63
2021/07/13 17:46:59;;;;;;;;;;;17.60;99.90;;;;;;8296385;28;19957;-62
2021/07/13 17:50:59;;;;;;;;;;;17.70;99.90;;;;;;8296999;28;20421;-63
2021/07/13 17:55:00;;;;;;;;;;;17.70;99.90;;;;;;8296757;28;20012;-63
2021/07/13 17:59:00;;;;;;;;;;;17.80;99.90;;;;;;8296444;28;19960;-62
2021/07/13 18:03:01;;;;;;;;;;;18.20;99.90;;;;;;8296844;28;19912;-62
2021/07/13 18:07:01;;;;;;;;;;;18.20;99.90;;;;;;8296632;28;19952;-63
2021/07/13 18:11:02;;;;;;;;;;;17.90;99.90;;;;;;8296749;28;19910;-62
2021/07/13 18:15:03;;;;;;;;;;;18.00;99.90;;;;;;8296953;28;19963;-62
2021/07/13 18:19:03;;;;;;;;;;;18.50;99.90;;;;;;8295482;28;19921;-63
2021/07/13 18:23:04;;;;;;;;;;;18.90;99.90;;;;;;8296246;28;20004;-63
2021/07/13 18:27:04;;;;;;;;;;;18.50;99.90;;;;;;8295796;28;20356;-63
2021/07/13 18:31:05;;;;;;;;;;;17.90;99.90;;;;;;8278434;28;19914;-62
2021/07/13 18:35:06;;;;;;;;;;;17.40;99.90;;;;;;8295389;28;19952;-63
2021/07/13 18:39:07;;;;;;;;;;;17.00;99.90;;;;;;8295438;28;19909;-62
2021/07/13 18:43:07;;;;;;;;;;;16.80;99.90;;;;;;8295326;28;20233;-62
2021/07/13 18:47:08;;;;;;;;;;;16.50;99.90;;;;;;8283744;28;19955;-63
2021/07/13 18:51:10;;;;;;;;;;;16.20;99.90;;;;;;8285203;28;19917;-63
2021/07/13 18:55:10;;;;;;;;;;;16.30;99.90;;;;;;8276168;28;19905;-63
2021/07/13 18:59:11;;;;;;;;;;;16.10;99.90;;;;;;8293619;28;19913;-63
2021/07/13 19:03:14;;;;;;;;;;;15.90;99.90;;;;;;8289773;28;19949;-63
2021/07/13 19:07:14;;;;;;;;;;;15.80;99.90;;;;;;8283109;28;19910;-63
2021/07/13 19:11:15;;;;;;;;;;;15.80;99.90;;;;;;8294114;28;20300;-63
2021/07/13 19:15:15;;;;;;;;;;;15.60;99.90;;;;;;8278087;28;19909;-63
2021/07/13 19:19:16;;;;;;;;;;;15.50;99.90;;;;;;8288471;28;19920;-62
2021/07/13 19:23:16;;;;;;;;;;;15.30;99.90;;;;;;8287715;28;19909;-64
2021/07/13 19:27:17;;;;;;;;;;;15.10;99.90;;;;;;8260018;28;19953;-63
2021/07/13 19:31:17;;;;;;;;;;;15.00;99.90;;;;;;8272261;28;20302;-63
2021/07/13 19:39:24;;;;;;;;;;;14.80;99.90;;;;;;8290402;28;19913;-64
2021/07/13 19:43:24;;;;;;;;;;;14.70;99.90;;;;;;8272460;28;19917;-64
2021/07/13 19:47:25;;;;;;;;;;;14.80;99.90;;;;;;8281710;28;19933;-64
2021/07/13 19:51:25;;;;;;;;;;;14.60;99.90;;;;;;8280033;28;19909;-64
2021/07/13 19:55:26;;;;;;;;;;;14.60;99.90;;;;;;8267241;28;20275;-65
2021/07/13 19:59:26;;;;;;;;;;;14.60;99.90;;;;;;8262217;28;19910;-64
2021/07/13 20:03:27;;;;;;;;;;;14.60;99.90;;;;;;8276692;28;19909;-64
2021/07/13 20:07:29;;;;;;;;;;;14.60;99.90;;;;;;8275539;28;19909;-64
2021/07/13 20:11:30;;;;;;;;;;;14.50;99.90;;;;;;8293035;28;19917;-64
2021/07/13 20:15:30;;;;;;;;;;;14.50;99.90;;;;;;8293529;28;19933;-64
2021/07/13 20:19:31;;;;;;;;;;;14.40;99.90;;;;;;8293468;28;19913;-65
2021/07/13 20:23:31;;;;;;;;;;;14.30;99.90;;;;;;8293381;28;19911;-65
2021/07/13 20:27:32;;;;;;;;;;;14.30;99.90;;;;;;8275435;28;20590;-64
2021/07/13 20:31:32;;;;;;;;;;;14.20;99.90;;;;;;8292429;28;19921;-64
2021/07/13 20:35:33;;;;;;;;;;;14.20;99.90;;;;;;8291979;28;19905;-64
2021/07/13 20:39:33;;;;;;;;;;;14.30;99.90;;;;;;8292141;28;19910;-64
2021/07/13 20:43:34;;;;;;;;;;;14.20;99.90;;;;;;8292603;28;19905;-64
2021/07/13 20:47:34;;;;;;;;;;;14.10;99.90;;;;;;8292771;28;19909;-65
2021/07/13 20:51:35;;;;;;;;;;;14.10;99.90;;;;;;8292538;28;20012;-65
2021/07/13 20:55:35;;;;;;;;;;;13.80;99.90;;;;;;8292720;28;19905;-65
2021/07/13 20:59:36;;;;;;;;;;;13.90;99.90;;;;;;8292520;28;19913;-65
2021/07/13 21:03:36;;;;;;;;;;;14.00;99.90;;;;;;8292741;28;20330;-65
2021/07/13 21:07:37;;;;;;;;;;;13.80;99.90;;;;;;8292643;28;19906;-65
2021/07/13 21:11:37;;;;;;;;;;;13.60;99.90;;;;;;8292200;28;19905;-65
2021/07/13 21:15:38;;;;;;;;;;;13.60;99.90;;;;;;8297982;28;19909;-65
2021/07/13 21:19:41;;;;;;;;;;;13.40;99.90;;;;;;8298536;28;19948;-65
2021/07/13 21:23:42;;;;;;;;;;;13.40;99.90;;;;;;8298279;28;20360;-65
2021/07/13 21:27:44;;;;;;;;;;;13.50;99.90;;;;;;8298053;28;19917;-65
2021/07/13 21:31:44;;;;;;;;;;;13.60;99.90;;;;;;8297947;28;19961;-64
2021/07/13 21:35:45;;;;;;;;;;;13.70;99.90;;;;;;8297707;28;19909;-64
2021/07/13 21:39:45;;;;;;;;;;;13.40;99.90;;;;;;8297488;28;19936;-65
2021/07/13 21:43:46;;;;;;;;;;;13.30;99.90;;;;;;8297788;28;19912;-65
2021/07/13 21:47:46;;;;;;;;;;;13.20;99.90;;;;;;8297592;28;19912;-65
2021/07/13 21:51:47;;;;;;;;;;;13.30;99.90;;;;;;8296159;28;20449;-65
2021/07/13 21:55:49;;;;;;;;;;;13.40;99.90;;;;;;8295764;28;19909;-65
2021/07/13 21:59:49;;;;;;;;;;;13.20;99.90;;;;;;8296985;28;19913;-65
2021/07/13 22:03:50;;;;;;;;;;;13.20;99.90;;;;;;8297071;28;19910;-64
2021/07/13 22:07:51;;;;;;;;;;;13.20;99.90;;;;;;8296914;28;20016;-65
2021/07/13 22:11:51;;;;;;;;;;;13.10;99.90;;;;;;8295724;28;20368;-64
2021/07/13 22:15:52;;;;;;;;;;;13.30;99.90;;;;;;8296665;28;19959;-65
2021/07/13 22:19:52;;;;;;;;;;;13.20;99.90;;;;;;8295137;28;20300;-64
2021/07/13 22:23:53;;;;;;;;;;;13.50;99.90;;;;;;8296396;28;19955;-65
2021/07/13 22:27:54;;;;;;;;;;;13.20;99.90;;;;;;8295513;28;19905;-65
2021/07/13 22:31:55;;;;;;;;;;;13.10;99.90;;;;;;8296192;28;19928;-65
2021/07/13 22:35:55;;;;;;;;;;;13.00;99.90;;;;;;8295809;28;19912;-64
2021/07/13 22:39:56;;;;;;;;;;;13.00;99.90;;;;;;8295738;28;19909;-64
2021/07/13 22:43:56;;;;;;;;;;;13.10;99.90;;;;;;8296019;28;19913;-64
2021/07/13 22:47:57;;;;;;;;;;;13.30;99.90;;;;;;8295617;28;19959;-65
2021/07/13 22:51:57;;;;;;;;;;;13.20;99.90;;;;;;8295700;28;19913;-64
2021/07/13 22:55:58;;;;;;;;;;;13.10;99.90;;;;;;8278120;28;20449;-65
2021/07/13 22:59:58;;;;;;;;;;;13.00;99.90;;;;;;8295381;28;19913;-65
2021/07/13 23:03:59;;;;;;;;;;;12.90;99.90;;;;;;8295268;28;19909;-65
2021/07/13 23:07:59;;;;;;;;;;;12.80;99.90;;;;;;8294718;28;20008;-65
2021/07/13 23:12:00;;;;;;;;;;;12.70;99.90;;;;;;8295261;28;19905;-65
2021/07/13 23:16:03;;;;;;;;;;;12.70;99.90;;;;;;8294597;28;19909;-65
2021/07/13 23:20:15;;;;;;;;;;;12.70;99.90;;;;;;8294628;28;19978;-65
2021/07/13 23:24:16;;;;;;;;;;;12.60;99.90;;;;;;8295027;28;19912;-65
2021/07/13 23:28:16;;;;;;;;;;;12.50;99.90;;;;;;8294685;28;20392;-65